Latest Weather Observations for Ernabella/Pukatja

IDS60801

Issued at 10:01 pm CDT Thursday 17 January 2019 (issued every 10 minutes, with the page automatically refreshed every 10 minutes)

About weather observations | Map of weather stations | Latest weather observations for SA | Other Formats
Station Details ID: 016097 Name: PUKATJA Lat: -26.26 Lon: 132.18 Height: 703.2 m
Data from the previous 72 hours. | See also: Recent months at Ernabella/Pukatja
Date/Time
CDT
Temp
°C
App
Temp
°C
Dew
Point
°C
Rel
Hum
%
Delta-T
°C
Wind Press
QNH
hPa
Press
MSL
hPa
Rain since
9am
mm
Dir  Spd
km/h
Gust
km/h
Spd
kts
Gust
kts
17/10:00pm 35.1 29.1 8.8 20 15.4 S 30 48 16 26 1007.5 1002.1 0.0
17/09:46pm 35.4 27.8 9.0 20 15.5 S 39 57 21 31 1007.4 1002.0 0.0
17/09:30pm 36.1 28.2 8.0 18 16.3 S 39 54 21 29 1007.2 1001.8 0.0
17/09:25pm 36.7 29.9 6.8 16 17.1 SSW 32 50 17 27 1007.1 1001.7 0.0
17/09:00pm 37.8 30.7 5.7 14 18.2 SW 32 44 17 24 1006.6 1001.1 0.0
17/08:33pm 38.6 34.7 5.3 13 18.8 WSW 15 56 8 30 1005.7 1000.3 0.0
17/08:30pm 39.0 36.4 4.4 12 19.3 NE 7 32 4 17 1006.0 1000.6 0.0
17/08:00pm 40.2 38.4 1.3 9 20.8 CALM 0 0 0 0 1005.4 999.9 0.0
17/07:30pm 40.8 37.7 0.1 8 21.6 NE 6 11 3 6 1005.0 999.5 0.0
17/07:00pm 41.0 37.0 0.3 8 21.6 WNW 11 15 6 8 1004.6 999.2 0.0
17/06:30pm 41.8 37.2 -1.0 7 22.4 NNW 13 17 7 9 1004.9 999.4 0.0
17/06:00pm 42.3 39.2 1.2 8 22.3 S 7 15 4 8 1005.1 999.6 0.0
17/05:30pm 42.6 38.4 1.4 8 22.4 N 13 24 7 13 1005.3 999.8 0.0
17/05:00pm 43.0 39.3 -0.1 7 22.9 W 9 17 5 9 1005.6 1000.2 0.0
17/04:30pm 43.2 38.7 0.0 7 23.1 ENE 13 20 7 11 1005.9 1000.5 0.0
17/04:00pm 42.4 38.1 1.3 8 22.3 NNW 13 20 7 11 1006.5 1001.0 0.0
17/03:32pm 41.8 36.1 0.8 8 22.0 NNE 20 54 11 29 1006.8 1001.3 0.0
17/03:30pm 42.6 37.2 1.4 8 22.4 NE 19 54 10 29 1006.7 1001.2 0.0
17/03:00pm 42.7 38.5 1.5 8 22.5 NNW 13 20 7 11 1007.2 1001.8 0.0
17/02:30pm 41.7 36.5 2.4 9 21.6 NNE 19 30 10 16 1007.6 1002.2 0.0
17/02:00pm 41.5 37.8 2.3 9 21.4 SW 11 19 6 10 1008.2 1002.8 0.0
17/01:30pm 40.5 36.5 3.0 10 20.7 NNE 13 24 7 13 1008.8 1003.4 0.0
17/01:12pm 41.7 36.3 2.4 9 21.5 NW 20 57 11 31 1008.8 1003.4 0.0
17/01:00pm 42.1 37.3 2.7 9 21.7 NW 17 30 9 16 1008.9 1003.5 0.0
17/12:30pm 40.7 35.4 3.1 10 20.8 NNW 20 33 11 18 1009.2 1003.8 0.0
17/12:00pm 39.6 34.4 3.7 11 19.9 NNW 20 33 11 18 1009.6 1004.2 0.0
17/11:30am 39.1 35.0 4.5 12 19.4 NNW 15 22 8 12 1009.6 1004.2 0.0
17/11:00am 38.2 34.8 6.0 14 18.3 NNE 13 22 7 12 1009.6 1004.2 0.0
17/10:30am 37.2 33.5 6.3 15 17.6 NNE 15 22 8 12 1009.6 1004.2 0.0
17/10:00am 36.3 31.9 6.5 16 16.9 N 19 26 10 14 1009.5 1004.1 0.0
17/09:30am 34.9 31.6 7.9 19 15.6 NNE 15 20 8 11 1009.5 1004.1 0.0
17/09:00am 33.7 30.1 8.3 21 14.7 NNE 17 20 9 11 1009.6 1004.2 0.0
17/08:30am 32.6 29.3 8.1 22 14.0 NNE 15 22 8 12 1009.7 1004.3 0.0
17/08:00am 31.9 31.5 8.2 23 13.5 CALM 0 6 0 3 1009.6 1004.2 0.0
17/07:30am 30.4 28.4 8.7 26 12.4 NNE 9 15 5 8 1009.1 1003.7 0.0
17/07:00am 28.9 26.9 8.6 28 11.5 E 9 11 5 6 1009.0 1003.6 0.0
17/06:30am 29.0 26.1 8.1 27 11.8 ESE 13 15 7 8 1008.7 1003.3 0.0
17/06:00am 29.5 26.2 8.0 26 12.1 ENE 15 19 8 10 1008.3 1002.9 0.0
17/05:30am 29.3 26.2 7.2 25 12.3 E 13 20 7 11 1008.4 1003.0 0.0
17/05:00am 30.3 27.1 6.9 23 13.0 ENE 13 17 7 9 1008.5 1003.1 0.0
17/04:30am 32.0 27.5 6.2 20 14.3 ENE 19 26 10 14 1008.4 1003.0 0.0
17/04:00am 32.4 27.7 5.1 18 14.9 NE 19 24 10 13 1008.3 1002.9 0.0
17/03:30am 32.3 27.6 5.0 18 14.9 ENE 19 22 10 12 1008.5 1003.1 0.0
17/03:00am 31.2 26.7 4.1 18 14.5 E 17 26 9 14 1008.6 1003.2 0.0
17/02:30am 31.7 27.6 4.5 18 14.7 ENE 15 24 8 13 1008.9 1003.5 0.0
17/02:00am 30.1 26.5 3.2 18 14.0 E 11 13 6 7 1009.2 1003.8 0.0
17/01:30am 31.5 27.1 2.7 16 15.1 E 15 20 8 11 1009.5 1004.1 0.0
17/01:00am 30.7 26.6 2.0 16 14.7 E 13 17 7 9 1009.5 1004.1 0.0
17/12:30am 32.4 27.8 1.5 14 15.9 ESE 15 17 8 9 1009.5 1004.1 0.0
17/12:00am 32.3 28.1 1.4 14 15.9 E 13 15 7 8 1009.6 1004.2 0.0
 
Date/Time
CDT
Temp
°C
App
Temp
°C
Dew
Point
°C
Rel
Hum
%
Delta-T
°C
Wind Press
QNH
hPa
Press
MSL
hPa
Rain since
9am
mm
Dir  Spd
km/h
Gust
km/h
Spd
kts
Gust
kts
16/11:30pm 32.8 28.1 0.8 13 16.3 E 15 17 8 9 1009.5 1004.1 0.0
16/11:00pm 32.0 28.0 0.2 13 16.0 ENE 11 15 6 8 1009.2 1003.8 0.0
16/10:30pm 33.5 29.1 0.2 12 16.9 E 13 13 7 7 1008.8 1003.4 0.0
16/10:00pm 34.2 29.7 -0.4 11 17.4 E 13 17 7 9 1008.6 1003.2 0.0
16/09:30pm 34.8 30.2 -1.3 10 18.0 E 13 15 7 8 1008.4 1003.0 0.0
16/09:00pm 36.6 32.0 -1.4 9 19.2 ENE 13 15 7 8 1008.1 1002.6 0.0
16/08:30pm 38.9 33.9 -1.3 8 20.6 ENE 15 22 8 12 1007.6 1002.2 0.0
16/08:00pm 40.2 35.1 -2.1 7 21.5 NE 15 20 8 11 1007.3 1001.9 0.0
16/07:30pm 41.3 37.4 -1.4 7 22.2 ENE 9 22 5 12 1007.2 1001.8 0.0
16/07:00pm 41.9 36.7 -3.0 6 22.8 ENE 15 24 8 13 1007.0 1001.6 0.0
16/06:30pm 41.7 36.8 -3.1 6 22.7 ENE 13 20 7 11 1007.0 1001.6 0.0
16/06:00pm 42.1 36.1 -2.9 6 22.9 NE 19 30 10 16 1007.2 1001.8 0.0
16/05:30pm 42.0 36.0 -2.9 6 22.9 ENE 19 32 10 17 1007.3 1001.9 0.0
16/05:00pm 42.4 36.3 -2.7 6 23.0 NE 20 35 11 19 1007.5 1002.1 0.0
16/04:30pm 42.4 37.5 -0.6 7 22.7 NW 15 30 8 16 1007.8 1002.3 0.0
16/04:00pm 42.0 35.1 -2.9 6 22.8 NE 24 37 13 20 1008.3 1002.9 0.0
16/03:30pm 42.3 37.0 -0.6 7 22.6 N 17 33 9 18 1008.6 1003.2 0.0
16/03:00pm 42.2 35.9 -0.7 7 22.6 ENE 22 37 12 20 1009.0 1003.6 0.0
16/02:30pm 41.2 36.0 0.4 8 21.7 N 17 32 9 17 1009.4 1003.9 0.0
16/02:00pm 40.7 34.5 0.0 8 21.4 N 22 33 12 18 1009.9 1004.5 0.0
16/01:30pm 41.7 35.7 0.8 8 21.9 N 22 46 12 25 1010.4 1005.0 0.0
16/01:00pm 40.7 34.0 1.7 9 21.1 NE 26 39 14 21 1011.0 1005.6 0.0
16/12:30pm 40.2 32.7 1.3 9 20.9 NNE 30 39 16 21 1011.3 1005.9 0.0
16/12:00pm 39.5 32.5 2.2 10 20.2 NNE 28 48 15 26 1011.4 1006.0 0.0
16/11:30am 39.9 33.0 2.5 10 20.4 NNE 28 46 15 25 1011.5 1006.1 0.0
16/11:28am 38.7 31.5 3.0 11 19.5 NNE 30 46 16 25 1011.6 1006.2 0.0
16/11:00am 38.4 31.4 4.0 12 19.0 NNE 30 43 16 23 1011.8 1006.4 0.0
16/10:30am 38.2 31.8 5.0 13 18.6 N 28 39 15 21 1012.0 1006.6 0.0
16/10:00am 37.7 32.3 4.6 13 18.4 N 22 33 12 18 1012.2 1006.9 0.0
16/09:30am 35.8 29.4 5.1 15 17.0 N 28 37 15 20 1012.2 1006.9 0.0
16/09:00am 34.8 28.4 5.3 16 16.3 N 28 43 15 23 1012.4 1007.0 0.0
16/08:30am 33.8 29.0 5.4 17 15.7 NNE 20 30 11 16 1012.1 1006.8 0.0
16/08:00am 32.8 27.6 5.4 18 15.0 NNE 22 33 12 18 1011.7 1006.3 0.0
16/07:30am 32.1 27.3 5.6 19 14.6 NNE 20 32 11 17 1011.5 1006.1 0.0
16/07:00am 31.2 27.0 5.6 20 14.0 NNE 17 26 9 14 1011.2 1005.8 0.0
16/06:30am 29.0 26.0 5.8 23 12.6 E 11 13 6 7 1011.0 1005.6 0.0
16/06:00am 29.0 25.8 5.1 22 12.8 ESE 11 13 6 7 1010.6 1005.2 0.0
16/05:30am 29.1 25.9 5.2 22 12.8 E 11 15 6 8 1010.5 1005.1 0.0
16/05:00am 28.2 24.5 4.5 22 12.5 E 13 15 7 8 1010.4 1005.0 0.0
16/04:30am 28.7 24.6 4.2 21 12.9 E 15 17 8 9 1010.3 1004.9 0.0
16/04:00am 29.5 25.8 4.2 20 13.4 E 13 17 7 9 1010.4 1005.0 0.0
16/03:30am 30.8 26.6 3.8 18 14.3 E 15 19 8 10 1010.5 1005.1 0.0
16/03:00am 31.2 26.5 3.3 17 14.7 E 17 19 9 10 1010.6 1005.2 0.0
16/02:30am 30.9 26.9 3.0 17 14.6 E 13 19 7 10 1010.7 1005.3 0.0
16/02:00am 30.7 26.6 2.0 16 14.7 E 13 15 7 8 1010.9 1005.5 0.0
16/01:30am 30.5 26.3 1.9 16 14.7 E 13 13 7 7 1011.0 1005.6 0.0
16/01:00am 32.0 27.7 1.2 14 15.7 E 13 15 7 8 1011.3 1005.9 0.0
16/12:30am 32.9 28.2 0.9 13 16.4 E 15 17 8 9 1011.3 1005.9 0.0
16/12:00am 33.4 28.8 1.3 13 16.6 E 15 17 8 9 1011.3 1005.9 0.0
 
Date/Time
CDT
Temp
°C
App
Temp
°C
Dew
Point
°C
Rel
Hum
%
Delta-T
°C
Wind Press
QNH
hPa
Press
MSL
hPa
Rain since
9am
mm
Dir  Spd
km/h
Gust
km/h
Spd
kts
Gust
kts
15/11:30pm 33.8 29.0 0.5 12 17.0 E 15 17 8 9 1011.4 1006.0 0.0
15/11:00pm 33.3 28.6 1.2 13 16.5 E 15 17 8 9 1011.2 1005.8 0.0
15/10:30pm 35.1 30.5 1.5 12 17.6 ENE 15 20 8 11 1011.0 1005.6 0.0
15/10:00pm 35.0 30.8 1.4 12 17.5 ENE 13 17 7 9 1010.6 1005.2 0.0
15/09:30pm 36.3 31.8 -0.2 10 18.7 ENE 13 15 7 8 1010.2 1004.8 0.0
15/09:00pm 38.3 32.7 -0.1 9 20.0 ENE 19 28 10 15 1009.9 1004.5 0.0
15/08:30pm 39.3 33.6 0.6 9 20.4 ENE 20 32 11 17 1009.7 1004.3 0.0
15/08:00pm 40.5 33.6 -0.1 8 21.3 ENE 26 37 14 20 1009.5 1004.1 0.0
15/07:30pm 41.4 34.3 -1.3 7 22.2 ENE 26 39 14 21 1009.2 1003.8 0.0
15/07:00pm 41.8 35.1 -1.0 7 22.3 ENE 24 43 13 23 1009.0 1003.6 0.0
15/06:30pm 42.5 35.9 -0.5 7 22.7 NE 24 33 13 18 1009.0 1003.6 0.0
15/06:00pm 42.6 36.8 -0.4 7 22.8 NE 20 30 11 16 1009.0 1003.6 0.0
15/05:30pm 42.0 36.7 -0.9 7 22.5 ESE 17 30 9 16 1009.1 1003.7 0.0
15/05:00pm 42.3 37.0 -0.6 7 22.6 ENE 17 32 9 17 1009.4 1003.9 0.0
15/04:30pm 43.5 38.8 -1.9 6 23.7 NE 13 24 7 13 1009.5 1004.1 0.0
15/04:11pm 43.6 38.9 -1.8 6 23.7 E 13 41 7 22 1009.7 1004.3 0.0
15/04:00pm 42.6 38.5 -0.4 7 22.7 SE 11 33 6 18 1009.9 1004.5 0.0
15/03:35pm 43.6 37.6 -1.8 6 23.7 ENE 20 39 11 21 1010.2 1004.8 0.0
15/03:30pm 43.3 38.2 -2.0 6 23.5 NE 15 20 8 11 1010.3 1004.9 0.0
15/03:00pm 42.7 37.4 -0.4 7 22.8 ENE 17 26 9 14 1010.5 1005.1 0.0
15/02:30pm 43.0 36.9 -2.2 6 23.4 ENE 20 32 11 17 1010.9 1005.5 0.0
15/02:00pm 43.3 39.2 0.1 7 23.1 NE 11 30 6 16 1011.2 1005.8 0.0
15/01:30pm 43.3 38.5 0.1 7 23.1 NE 15 28 8 15 1011.6 1006.2 0.0
15/01:00pm 42.2 38.3 1.1 8 22.2 NE 11 17 6 9 1012.1 1006.8 0.0
15/12:45pm 42.0 35.6 1.0 8 22.1 ENE 24 39 13 21 1012.2 1006.9 0.0
15/12:30pm 41.8 36.3 0.8 8 22.0 ENE 19 32 10 17 1012.4 1007.0 0.0
15/12:00pm 40.5 35.7 -0.1 8 21.3 NE 15 32 8 17 1012.6 1007.2 0.0
15/11:30am 40.7 35.1 0.0 8 21.4 NNE 19 30 10 16 1012.7 1007.3 0.0
15/11:00am 40.3 34.9 1.4 9 20.9 NNE 19 30 10 16 1012.8 1007.4 0.0
15/10:30am 38.8 33.1 0.3 9 20.2 NNE 20 30 11 16 1012.9 1007.5 0.0
15/10:00am 38.3 32.9 1.3 10 19.6 NNE 19 26 10 14 1013.1 1007.7 0.0
15/09:30am 36.8 31.8 1.5 11 18.6 NNE 17 24 9 13 1013.2 1007.8 0.0
15/09:00am 35.1 32.4 2.6 13 17.3 NW 6 11 3 6 1013.3 1007.9 0.0
15/08:30am 34.3 32.8 3.0 14 16.7 CALM 0 0 0 0 1013.4 1008.1 0.0
15/08:00am 30.9 29.8 5.3 20 13.9 CALM 0 0 0 0 1013.2 1007.8 0.0
15/07:30am 27.6 26.5 5.2 24 11.9 CALM 0 2 0 1 1012.8 1007.4 0.0
15/07:00am 28.5 26.4 4.1 21 12.8 E 4 7 2 4 1012.4 1007.0 0.0
15/06:30am 26.3 25.1 4.7 25 11.3 CALM 0 6 0 3 1011.9 1006.5 0.0
15/06:00am 27.0 25.4 4.7 24 11.7 S 2 7 1 4 1011.7 1006.3 0.0
15/05:30am 27.6 26.0 4.6 23 12.1 N 2 7 1 4 1011.5 1006.1 0.0
15/05:00am 27.1 25.6 4.8 24 11.7 ENE 2 7 1 4 1011.5 1006.1 0.0
15/04:30am 29.3 26.0 4.7 21 13.1 ESE 11 17 6 9 1011.5 1006.1 0.0
15/04:00am 28.3 26.0 4.6 22 12.5 WSW 6 7 3 4 1011.2 1005.8 0.0
15/03:30am 31.6 29.0 4.4 18 14.6 SE 7 9 4 5 1011.2 1005.8 0.0
15/03:00am 31.5 28.5 4.3 18 14.6 ESE 9 9 5 5 1011.2 1005.8 0.0
15/02:30am 28.5 26.0 4.7 22 12.6 E 7 9 4 5 1011.1 1005.7 0.0
15/02:00am 30.1 27.1 4.0 19 13.8 E 9 11 5 6 1011.2 1005.8 0.0
15/01:30am 31.6 28.1 3.6 17 14.8 E 11 13 6 7 1011.6 1006.2 0.0
15/01:00am 32.2 28.3 3.2 16 15.3 E 13 15 7 8 1011.6 1006.2 0.0
15/12:30am 32.8 29.2 2.8 15 15.8 E 11 13 6 7 1011.7 1006.3 0.0
15/12:00am 33.6 30.3 2.4 14 16.4 ENE 9 13 5 7 1011.8 1006.4 0.0
 
Date/Time
CDT
Temp
°C
App
Temp
°C
Dew
Point
°C
Rel
Hum
%
Delta-T
°C
Wind Press
QNH
hPa
Press
MSL
hPa
Rain since
9am
mm
Dir  Spd
km/h
Gust
km/h
Spd
kts
Gust
kts
14/11:30pm 33.3 29.0 1.2 13 16.5 E 13 17 7 9 1011.6 1006.2 0.0
14/11:00pm 33.7 29.5 1.5 13 16.7 ENE 13 17 7 9 1011.2 1005.8 0.0
14/10:30pm 34.6 31.1 1.1 12 17.4 ENE 9 13 5 7 1011.0 1005.6 0.0

Other Formats:

Comma delimited format used in spreadsheet applications
http://www.bom.gov.au/fwo/IDS60801/IDS60801.94474.axf

JavaScript Object Notation format (JSON) in row-major order
http://www.bom.gov.au/fwo/IDS60801/IDS60801.94474.json